sensor_id;sensor_type;location;lat;lon;timestamp;P1;durP1;ratioP1;P2;durP2;ratioP2
65656;SDS011;57397;50.096;14.404;2022-11-10T00:01:57;8.98;;;5.85;;
65656;SDS011;57397;50.096;14.404;2022-11-10T00:04:22;8.50;;;5.80;;
65656;SDS011;57397;50.096;14.404;2022-11-10T00:06:48;9.23;;;5.90;;
65656;SDS011;57397;50.096;14.404;2022-11-10T00:09:14;10.23;;;6.47;;
65656;SDS011;57397;50.096;14.404;2022-11-10T00:11:41;8.40;;;5.90;;
65656;SDS011;57397;50.096;14.404;2022-11-10T00:14:08;8.18;;;5.43;;
65656;SDS011;57397;50.096;14.404;2022-11-10T00:16:52;9.18;;;5.50;;
65656;SDS011;57397;50.096;14.404;2022-11-10T00:19:28;7.75;;;5.13;;
65656;SDS011;57397;50.096;14.404;2022-11-10T00:21:57;9.05;;;6.07;;
65656;SDS011;57397;50.096;14.404;2022-11-10T00:24:24;7.82;;;5.50;;
65656;SDS011;57397;50.096;14.404;2022-11-10T00:26:51;7.93;;;5.50;;
65656;SDS011;57397;50.096;14.404;2022-11-10T00:29:16;8.73;;;5.55;;
65656;SDS011;57397;50.096;14.404;2022-11-10T00:31:43;8.98;;;5.68;;
65656;SDS011;57397;50.096;14.404;2022-11-10T00:34:13;7.05;;;5.25;;
65656;SDS011;57397;50.096;14.404;2022-11-10T00:36:41;8.40;;;5.85;;
65656;SDS011;57397;50.096;14.404;2022-11-10T00:39:07;8.52;;;5.60;;
65656;SDS011;57397;50.096;14.404;2022-11-10T00:41:33;8.68;;;5.50;;
65656;SDS011;57397;50.096;14.404;2022-11-10T00:43:59;8.52;;;5.57;;
65656;SDS011;57397;50.096;14.404;2022-11-10T00:46:25;7.60;;;5.07;;
65656;SDS011;57397;50.096;14.404;2022-11-10T00:48:50;8.23;;;5.55;;
65656;SDS011;57397;50.096;14.404;2022-11-10T00:53:48;8.10;;;5.25;;
65656;SDS011;57397;50.096;14.404;2022-11-10T00:56:14;7.75;;;5.45;;
65656;SDS011;57397;50.096;14.404;2022-11-10T00:58:39;7.28;;;5.40;;
65656;SDS011;57397;50.096;14.404;2022-11-10T01:01:05;7.72;;;5.30;;
65656;SDS011;57397;50.096;14.404;2022-11-10T01:03:31;7.63;;;5.50;;
65656;SDS011;57397;50.096;14.404;2022-11-10T01:05:57;8.65;;;5.43;;
65656;SDS011;57397;50.096;14.404;2022-11-10T01:08:23;7.03;;;4.85;;
65656;SDS011;57397;50.096;14.404;2022-11-10T01:10:48;7.65;;;5.15;;
65656;SDS011;57397;50.096;14.404;2022-11-10T01:13:14;7.63;;;5.22;;
65656;SDS011;57397;50.096;14.404;2022-11-10T01:15:40;6.82;;;5.05;;
65656;SDS011;57397;50.096;14.404;2022-11-10T01:18:06;7.30;;;5.05;;
65656;SDS011;57397;50.096;14.404;2022-11-10T01:20:33;7.20;;;4.78;;
65656;SDS011;57397;50.096;14.404;2022-11-10T01:22:58;7.43;;;5.22;;
65656;SDS011;57397;50.096;14.404;2022-11-10T01:25:24;7.43;;;4.93;;
65656;SDS011;57397;50.096;14.404;2022-11-10T01:27:50;7.55;;;5.00;;
65656;SDS011;57397;50.096;14.404;2022-11-10T01:30:16;7.15;;;5.07;;
65656;SDS011;57397;50.096;14.404;2022-11-10T01:32:42;7.63;;;5.05;;
65656;SDS011;57397;50.096;14.404;2022-11-10T01:35:07;7.03;;;5.10;;
65656;SDS011;57397;50.096;14.404;2022-11-10T01:37:33;7.25;;;5.05;;
65656;SDS011;57397;50.096;14.404;2022-11-10T01:39:59;7.28;;;5.05;;
65656;SDS011;57397;50.096;14.404;2022-11-10T01:42:37;7.50;;;5.03;;
65656;SDS011;57397;50.096;14.404;2022-11-10T01:47:49;7.53;;;5.20;;
65656;SDS011;57397;50.096;14.404;2022-11-10T01:50:15;6.97;;;4.80;;
65656;SDS011;57397;50.096;14.404;2022-11-10T01:52:41;7.72;;;5.10;;
65656;SDS011;57397;50.096;14.404;2022-11-10T01:55:08;6.90;;;4.82;;
65656;SDS011;57397;50.096;14.404;2022-11-10T01:57:34;7.60;;;4.75;;
65656;SDS011;57397;50.096;14.404;2022-11-10T02:00:00;6.85;;;4.63;;
65656;SDS011;57397;50.096;14.404;2022-11-10T02:05:10;7.32;;;4.85;;
65656;SDS011;57397;50.096;14.404;2022-11-10T02:07:36;6.25;;;4.78;;
65656;SDS011;57397;50.096;14.404;2022-11-10T02:10:02;7.30;;;4.85;;
65656;SDS011;57397;50.096;14.404;2022-11-10T02:12:28;7.63;;;4.72;;
65656;SDS011;57397;50.096;14.404;2022-11-10T02:15:07;7.88;;;5.30;;
65656;SDS011;57397;50.096;14.404;2022-11-10T02:17:34;6.65;;;4.70;;
65656;SDS011;57397;50.096;14.404;2022-11-10T02:20:01;6.88;;;4.68;;
65656;SDS011;57397;50.096;14.404;2022-11-10T02:22:29;7.85;;;4.97;;
65656;SDS011;57397;50.096;14.404;2022-11-10T02:24:56;6.47;;;4.57;;
65656;SDS011;57397;50.096;14.404;2022-11-10T02:27:21;6.32;;;4.53;;
65656;SDS011;57397;50.096;14.404;2022-11-10T02:29:47;6.72;;;4.93;;
65656;SDS011;57397;50.096;14.404;2022-11-10T02:32:13;5.82;;;4.40;;
65656;SDS011;57397;50.096;14.404;2022-11-10T02:34:38;6.80;;;4.55;;
65656;SDS011;57397;50.096;14.404;2022-11-10T02:37:04;6.47;;;4.57;;
65656;SDS011;57397;50.096;14.404;2022-11-10T02:39:29;5.78;;;4.28;;
65656;SDS011;57397;50.096;14.404;2022-11-10T02:41:54;6.85;;;4.35;;
65656;SDS011;57397;50.096;14.404;2022-11-10T02:44:20;6.00;;;4.55;;
65656;SDS011;57397;50.096;14.404;2022-11-10T02:46:45;6.18;;;4.38;;
65656;SDS011;57397;50.096;14.404;2022-11-10T02:49:11;6.60;;;4.30;;
65656;SDS011;57397;50.096;14.404;2022-11-10T02:51:36;6.28;;;4.30;;
65656;SDS011;57397;50.096;14.404;2022-11-10T02:54:02;6.72;;;4.28;;
65656;SDS011;57397;50.096;14.404;2022-11-10T02:56:27;6.10;;;4.55;;
65656;SDS011;57397;50.096;14.404;2022-11-10T02:58:53;6.20;;;4.57;;
65656;SDS011;57397;50.096;14.404;2022-11-10T03:01:18;6.75;;;4.32;;
65656;SDS011;57397;50.096;14.404;2022-11-10T03:03:44;6.03;;;4.15;;
65656;SDS011;57397;50.096;14.404;2022-11-10T03:06:09;5.30;;;4.13;;
65656;SDS011;57397;50.096;14.404;2022-11-10T03:08:34;5.28;;;4.05;;
65656;SDS011;57397;50.096;14.404;2022-11-10T03:11:00;5.85;;;4.22;;
65656;SDS011;57397;50.096;14.404;2022-11-10T03:13:26;6.05;;;3.95;;
65656;SDS011;57397;50.096;14.404;2022-11-10T03:15:51;5.50;;;4.20;;
65656;SDS011;57397;50.096;14.404;2022-11-10T03:18:17;6.25;;;4.10;;
65656;SDS011;57397;50.096;14.404;2022-11-10T03:20:45;5.57;;;3.95;;
65656;SDS011;57397;50.096;14.404;2022-11-10T03:23:11;5.50;;;3.88;;
65656;SDS011;57397;50.096;14.404;2022-11-10T03:25:36;6.05;;;4.18;;
65656;SDS011;57397;50.096;14.404;2022-11-10T03:28:02;5.80;;;4.18;;
65656;SDS011;57397;50.096;14.404;2022-11-10T03:30:28;5.95;;;3.83;;
65656;SDS011;57397;50.096;14.404;2022-11-10T03:32:53;5.65;;;4.20;;
65656;SDS011;57397;50.096;14.404;2022-11-10T03:35:19;5.63;;;3.67;;
65656;SDS011;57397;50.096;14.404;2022-11-10T03:37:44;5.50;;;4.07;;
65656;SDS011;57397;50.096;14.404;2022-11-10T03:40:10;5.78;;;3.83;;
65656;SDS011;57397;50.096;14.404;2022-11-10T03:42:38;4.63;;;3.88;;
65656;SDS011;57397;50.096;14.404;2022-11-10T03:45:05;5.75;;;3.67;;
65656;SDS011;57397;50.096;14.404;2022-11-10T03:47:31;6.05;;;3.65;;
65656;SDS011;57397;50.096;14.404;2022-11-10T03:49:57;4.70;;;3.42;;
65656;SDS011;57397;50.096;14.404;2022-11-10T03:52:22;4.30;;;3.47;;
65656;SDS011;57397;50.096;14.404;2022-11-10T03:54:47;5.10;;;3.60;;
65656;SDS011;57397;50.096;14.404;2022-11-10T03:57:13;4.88;;;3.53;;
65656;SDS011;57397;50.096;14.404;2022-11-10T03:59:39;5.68;;;3.95;;
65656;SDS011;57397;50.096;14.404;2022-11-10T04:02:04;5.53;;;3.70;;
65656;SDS011;57397;50.096;14.404;2022-11-10T04:04:29;6.15;;;3.80;;
65656;SDS011;57397;50.096;14.404;2022-11-10T04:07:13;4.30;;;3.35;;
65656;SDS011;57397;50.096;14.404;2022-11-10T04:09:57;4.68;;;3.35;;
65656;SDS011;57397;50.096;14.404;2022-11-10T04:12:23;5.28;;;3.65;;
65656;SDS011;57397;50.096;14.404;2022-11-10T04:15:08;4.28;;;3.20;;
65656;SDS011;57397;50.096;14.404;2022-11-10T04:17:53;5.10;;;3.60;;
65656;SDS011;57397;50.096;14.404;2022-11-10T04:20:19;4.72;;;3.20;;
65656;SDS011;57397;50.096;14.404;2022-11-10T04:22:44;7.25;;;4.55;;
65656;SDS011;57397;50.096;14.404;2022-11-10T04:25:28;4.57;;;3.28;;
65656;SDS011;57397;50.096;14.404;2022-11-10T04:27:54;4.55;;;3.30;;
65656;SDS011;57397;50.096;14.404;2022-11-10T04:30:19;5.40;;;3.50;;
65656;SDS011;57397;50.096;14.404;2022-11-10T04:32:45;5.40;;;3.60;;
65656;SDS011;57397;50.096;14.404;2022-11-10T04:35:10;4.80;;;3.20;;
65656;SDS011;57397;50.096;14.404;2022-11-10T04:37:35;5.22;;;3.30;;
65656;SDS011;57397;50.096;14.404;2022-11-10T04:40:01;5.00;;;3.60;;
65656;SDS011;57397;50.096;14.404;2022-11-10T04:42:26;4.53;;;3.05;;
65656;SDS011;57397;50.096;14.404;2022-11-10T04:44:52;4.72;;;3.22;;
65656;SDS011;57397;50.096;14.404;2022-11-10T04:47:17;5.03;;;3.40;;
65656;SDS011;57397;50.096;14.404;2022-11-10T04:49:43;4.43;;;3.08;;
65656;SDS011;57397;50.096;14.404;2022-11-10T04:52:08;4.53;;;2.75;;
65656;SDS011;57397;50.096;14.404;2022-11-10T04:54:33;4.15;;;2.95;;
65656;SDS011;57397;50.096;14.404;2022-11-10T04:56:59;4.13;;;2.80;;
65656;SDS011;57397;50.096;14.404;2022-11-10T04:59:24;4.22;;;2.97;;
65656;SDS011;57397;50.096;14.404;2022-11-10T05:01:50;3.63;;;2.72;;
65656;SDS011;57397;50.096;14.404;2022-11-10T05:04:15;3.63;;;2.83;;
65656;SDS011;57397;50.096;14.404;2022-11-10T05:06:40;3.58;;;2.67;;
65656;SDS011;57397;50.096;14.404;2022-11-10T05:09:06;4.00;;;2.80;;
65656;SDS011;57397;50.096;14.404;2022-11-10T05:11:31;4.28;;;3.17;;
65656;SDS011;57397;50.096;14.404;2022-11-10T05:13:57;4.78;;;3.10;;
65656;SDS011;57397;50.096;14.404;2022-11-10T05:16:22;4.70;;;3.22;;
65656;SDS011;57397;50.096;14.404;2022-11-10T05:18:47;4.10;;;2.80;;
65656;SDS011;57397;50.096;14.404;2022-11-10T05:21:18;3.47;;;2.60;;
65656;SDS011;57397;50.096;14.404;2022-11-10T05:23:44;4.05;;;2.78;;
65656;SDS011;57397;50.096;14.404;2022-11-10T05:26:14;4.63;;;2.60;;
65656;SDS011;57397;50.096;14.404;2022-11-10T05:28:41;3.75;;;2.70;;
65656;SDS011;57397;50.096;14.404;2022-11-10T05:31:07;3.92;;;3.00;;
65656;SDS011;57397;50.096;14.404;2022-11-10T05:33:33;4.18;;;2.67;;
65656;SDS011;57397;50.096;14.404;2022-11-10T05:35:59;3.47;;;2.55;;
65656;SDS011;57397;50.096;14.404;2022-11-10T05:38:26;4.07;;;2.70;;
65656;SDS011;57397;50.096;14.404;2022-11-10T05:40:51;3.47;;;2.30;;
65656;SDS011;57397;50.096;14.404;2022-11-10T05:43:17;2.90;;;2.20;;
65656;SDS011;57397;50.096;14.404;2022-11-10T05:45:42;3.70;;;2.60;;
65656;SDS011;57397;50.096;14.404;2022-11-10T05:48:08;3.53;;;2.53;;
65656;SDS011;57397;50.096;14.404;2022-11-10T05:50:33;3.60;;;2.40;;
65656;SDS011;57397;50.096;14.404;2022-11-10T05:52:59;4.10;;;2.50;;
65656;SDS011;57397;50.096;14.404;2022-11-10T05:55:26;3.25;;;2.40;;
65656;SDS011;57397;50.096;14.404;2022-11-10T05:57:52;3.22;;;2.45;;
65656;SDS011;57397;50.096;14.404;2022-11-10T06:00:20;4.32;;;2.72;;
65656;SDS011;57397;50.096;14.404;2022-11-10T06:03:06;3.15;;;2.40;;
65656;SDS011;57397;50.096;14.404;2022-11-10T06:05:36;2.80;;;2.15;;
65656;SDS011;57397;50.096;14.404;2022-11-10T06:08:02;2.83;;;1.95;;
65656;SDS011;57397;50.096;14.404;2022-11-10T06:10:29;2.60;;;2.00;;
65656;SDS011;57397;50.096;14.404;2022-11-10T06:12:55;3.47;;;2.17;;
65656;SDS011;57397;50.096;14.404;2022-11-10T06:15:21;2.85;;;2.08;;
65656;SDS011;57397;50.096;14.404;2022-11-10T06:17:56;2.90;;;2.00;;
65656;SDS011;57397;50.096;14.404;2022-11-10T06:20:21;4.30;;;2.30;;
65656;SDS011;57397;50.096;14.404;2022-11-10T06:22:57;2.70;;;2.00;;
65656;SDS011;57397;50.096;14.404;2022-11-10T06:25:23;2.72;;;2.17;;
65656;SDS011;57397;50.096;14.404;2022-11-10T06:27:49;3.47;;;2.10;;
65656;SDS011;57397;50.096;14.404;2022-11-10T06:30:15;3.17;;;2.03;;
65656;SDS011;57397;50.096;14.404;2022-11-10T06:32:41;3.17;;;1.90;;
65656;SDS011;57397;50.096;14.404;2022-11-10T06:35:08;2.85;;;1.85;;
65656;SDS011;57397;50.096;14.404;2022-11-10T06:37:34;2.35;;;2.00;;
65656;SDS011;57397;50.096;14.404;2022-11-10T06:39:59;2.50;;;1.75;;
65656;SDS011;57397;50.096;14.404;2022-11-10T06:42:25;2.70;;;1.90;;
65656;SDS011;57397;50.096;14.404;2022-11-10T06:44:50;2.25;;;1.60;;
65656;SDS011;57397;50.096;14.404;2022-11-10T06:47:16;2.50;;;1.90;;
65656;SDS011;57397;50.096;14.404;2022-11-10T06:49:41;1.90;;;1.60;;
65656;SDS011;57397;50.096;14.404;2022-11-10T06:52:07;2.08;;;1.70;;
65656;SDS011;57397;50.096;14.404;2022-11-10T06:54:32;2.53;;;1.60;;
65656;SDS011;57397;50.096;14.404;2022-11-10T06:56:58;3.40;;;1.83;;
65656;SDS011;57397;50.096;14.404;2022-11-10T06:59:23;2.53;;;1.80;;
65656;SDS011;57397;50.096;14.404;2022-11-10T07:01:49;2.88;;;1.48;;
65656;SDS011;57397;50.096;14.404;2022-11-10T07:04:14;1.85;;;1.40;;
65656;SDS011;57397;50.096;14.404;2022-11-10T07:06:40;2.38;;;1.60;;
65656;SDS011;57397;50.096;14.404;2022-11-10T07:09:06;3.28;;;1.70;;
65656;SDS011;57397;50.096;14.404;2022-11-10T07:11:31;2.22;;;1.60;;
65656;SDS011;57397;50.096;14.404;2022-11-10T07:13:57;1.83;;;1.40;;
65656;SDS011;57397;50.096;14.404;2022-11-10T07:16:22;2.10;;;1.50;;
65656;SDS011;57397;50.096;14.404;2022-11-10T07:18:48;1.98;;;1.50;;
65656;SDS011;57397;50.096;14.404;2022-11-10T07:21:13;1.88;;;1.30;;
65656;SDS011;57397;50.096;14.404;2022-11-10T07:23:39;1.70;;;1.40;;
65656;SDS011;57397;50.096;14.404;2022-11-10T07:26:04;1.80;;;1.30;;
65656;SDS011;57397;50.096;14.404;2022-11-10T07:28:30;2.05;;;1.20;;
65656;SDS011;57397;50.096;14.404;2022-11-10T07:30:55;1.88;;;1.40;;
65656;SDS011;57397;50.096;14.404;2022-11-10T07:33:21;2.45;;;1.40;;
65656;SDS011;57397;50.096;14.404;2022-11-10T07:35:50;2.00;;;1.50;;
65656;SDS011;57397;50.096;14.404;2022-11-10T07:38:22;2.30;;;1.40;;
65656;SDS011;57397;50.096;14.404;2022-11-10T07:40:51;2.03;;;1.30;;
65656;SDS011;57397;50.096;14.404;2022-11-10T07:43:18;1.98;;;1.50;;
65656;SDS011;57397;50.096;14.404;2022-11-10T07:45:50;2.08;;;1.33;;
65656;SDS011;57397;50.096;14.404;2022-11-10T07:48:17;3.00;;;1.60;;
65656;SDS011;57397;50.096;14.404;2022-11-10T07:50:46;2.17;;;1.20;;
65656;SDS011;57397;50.096;14.404;2022-11-10T07:53:12;2.25;;;1.30;;
65656;SDS011;57397;50.096;14.404;2022-11-10T07:55:40;1.98;;;1.48;;
65656;SDS011;57397;50.096;14.404;2022-11-10T07:58:07;2.10;;;1.50;;
65656;SDS011;57397;50.096;14.404;2022-11-10T08:00:33;1.95;;;1.20;;
65656;SDS011;57397;50.096;14.404;2022-11-10T08:03:11;2.10;;;1.30;;
65656;SDS011;57397;50.096;14.404;2022-11-10T08:05:41;1.58;;;1.25;;
65656;SDS011;57397;50.096;14.404;2022-11-10T08:08:07;2.00;;;1.50;;
65656;SDS011;57397;50.096;14.404;2022-11-10T08:10:33;1.92;;;1.33;;
65656;SDS011;57397;50.096;14.404;2022-11-10T08:13:00;2.03;;;1.30;;
65656;SDS011;57397;50.096;14.404;2022-11-10T08:15:28;2.45;;;1.30;;
65656;SDS011;57397;50.096;14.404;2022-11-10T08:18:00;2.50;;;1.50;;
65656;SDS011;57397;50.096;14.404;2022-11-10T08:20:27;2.40;;;1.25;;
65656;SDS011;57397;50.096;14.404;2022-11-10T08:23:00;3.90;;;1.30;;
65656;SDS011;57397;50.096;14.404;2022-11-10T08:25:28;2.22;;;1.20;;
65656;SDS011;57397;50.096;14.404;2022-11-10T08:28:04;2.20;;;1.33;;
65656;SDS011;57397;50.096;14.404;2022-11-10T08:30:31;2.33;;;1.20;;
65656;SDS011;57397;50.096;14.404;2022-11-10T08:32:58;2.17;;;1.27;;
65656;SDS011;57397;50.096;14.404;2022-11-10T08:35:26;2.00;;;1.20;;
65656;SDS011;57397;50.096;14.404;2022-11-10T08:37:53;1.35;;;1.08;;
65656;SDS011;57397;50.096;14.404;2022-11-10T08:40:19;1.48;;;1.10;;
65656;SDS011;57397;50.096;14.404;2022-11-10T08:42:46;1.83;;;1.00;;
65656;SDS011;57397;50.096;14.404;2022-11-10T08:45:12;1.60;;;1.30;;
65656;SDS011;57397;50.096;14.404;2022-11-10T08:47:37;2.53;;;1.30;;
65656;SDS011;57397;50.096;14.404;2022-11-10T08:50:03;1.75;;;1.10;;
65656;SDS011;57397;50.096;14.404;2022-11-10T08:52:29;2.17;;;1.10;;
65656;SDS011;57397;50.096;14.404;2022-11-10T08:54:55;2.35;;;1.23;;
65656;SDS011;57397;50.096;14.404;2022-11-10T08:57:21;1.50;;;1.00;;
65656;SDS011;57397;50.096;14.404;2022-11-10T08:59:46;2.30;;;1.30;;
65656;SDS011;57397;50.096;14.404;2022-11-10T09:02:11;1.55;;;1.00;;
65656;SDS011;57397;50.096;14.404;2022-11-10T09:04:37;1.58;;;1.02;;
65656;SDS011;57397;50.096;14.404;2022-11-10T09:07:02;2.30;;;1.38;;
65656;SDS011;57397;50.096;14.404;2022-11-10T09:09:28;1.23;;;1.00;;
65656;SDS011;57397;50.096;14.404;2022-11-10T09:11:53;1.60;;;1.00;;
65656;SDS011;57397;50.096;14.404;2022-11-10T09:14:19;1.30;;;1.00;;
65656;SDS011;57397;50.096;14.404;2022-11-10T09:16:45;1.98;;;0.90;;
65656;SDS011;57397;50.096;14.404;2022-11-10T09:19:10;1.98;;;1.00;;
65656;SDS011;57397;50.096;14.404;2022-11-10T09:21:36;1.65;;;1.08;;
65656;SDS011;57397;50.096;14.404;2022-11-10T09:24:02;1.63;;;1.00;;
65656;SDS011;57397;50.096;14.404;2022-11-10T09:26:27;1.50;;;1.10;;
65656;SDS011;57397;50.096;14.404;2022-11-10T09:28:53;1.45;;;0.80;;
65656;SDS011;57397;50.096;14.404;2022-11-10T09:31:21;1.42;;;0.98;;
65656;SDS011;57397;50.096;14.404;2022-11-10T09:33:47;1.65;;;1.00;;
65656;SDS011;57397;50.096;14.404;2022-11-10T09:36:12;2.28;;;0.90;;
65656;SDS011;57397;50.096;14.404;2022-11-10T09:38:38;1.50;;;1.00;;
65656;SDS011;57397;50.096;14.404;2022-11-10T09:41:05;1.40;;;0.90;;
65656;SDS011;57397;50.096;14.404;2022-11-10T09:46:22;2.25;;;0.90;;
65656;SDS011;57397;50.096;14.404;2022-11-10T09:48:50;2.03;;;1.13;;
65656;SDS011;57397;50.096;14.404;2022-11-10T09:51:26;1.95;;;0.90;;
65656;SDS011;57397;50.096;14.404;2022-11-10T09:58:59;1.63;;;0.80;;
65656;SDS011;57397;50.096;14.404;2022-11-10T10:09:26;1.67;;;1.02;;
65656;SDS011;57397;50.096;14.404;2022-11-10T10:17:27;0.98;;;0.82;;
65656;SDS011;57397;50.096;14.404;2022-11-10T10:20:07;1.77;;;0.90;;
65656;SDS011;57397;50.096;14.404;2022-11-10T10:22:45;2.15;;;0.82;;
65656;SDS011;57397;50.096;14.404;2022-11-10T10:25:13;1.65;;;1.05;;
65656;SDS011;57397;50.096;14.404;2022-11-10T10:27:43;1.90;;;0.88;;
65656;SDS011;57397;50.096;14.404;2022-11-10T10:30:17;1.48;;;0.85;;
65656;SDS011;57397;50.096;14.404;2022-11-10T10:32:43;1.60;;;0.88;;
65656;SDS011;57397;50.096;14.404;2022-11-10T10:35:15;1.30;;;0.88;;
65656;SDS011;57397;50.096;14.404;2022-11-10T10:37:47;2.70;;;0.88;;
65656;SDS011;57397;50.096;14.404;2022-11-10T10:40:15;1.83;;;0.80;;
65656;SDS011;57397;50.096;14.404;2022-11-10T10:42:47;1.10;;;0.70;;
65656;SDS011;57397;50.096;14.404;2022-11-10T10:47:48;1.45;;;0.70;;
65656;SDS011;57397;50.096;14.404;2022-11-10T10:52:44;1.00;;;0.70;;
65656;SDS011;57397;50.096;14.404;2022-11-10T10:55:10;2.20;;;0.90;;
65656;SDS011;57397;50.096;14.404;2022-11-10T10:57:36;1.00;;;0.70;;
65656;SDS011;57397;50.096;14.404;2022-11-10T11:00:21;1.77;;;0.80;;
65656;SDS011;57397;50.096;14.404;2022-11-10T11:03:04;1.75;;;1.00;;
65656;SDS011;57397;50.096;14.404;2022-11-10T11:05:31;1.52;;;0.90;;
65656;SDS011;57397;50.096;14.404;2022-11-10T11:08:00;1.60;;;0.82;;
65656;SDS011;57397;50.096;14.404;2022-11-10T11:10:31;1.45;;;0.90;;
65656;SDS011;57397;50.096;14.404;2022-11-10T11:13:15;1.73;;;0.82;;
65656;SDS011;57397;50.096;14.404;2022-11-10T11:15:59;3.55;;;0.88;;
65656;SDS011;57397;50.096;14.404;2022-11-10T11:18:27;1.77;;;0.77;;
65656;SDS011;57397;50.096;14.404;2022-11-10T11:34:59;1.80;;;0.85;;
65656;SDS011;57397;50.096;14.404;2022-11-10T11:40:04;1.42;;;0.80;;
65656;SDS011;57397;50.096;14.404;2022-11-10T11:45:18;1.77;;;0.80;;
65656;SDS011;57397;50.096;14.404;2022-11-10T11:51:17;1.33;;;0.75;;
65656;SDS011;57397;50.096;14.404;2022-11-10T11:56:33;1.63;;;0.70;;
65656;SDS011;57397;50.096;14.404;2022-11-10T12:18:27;1.58;;;0.80;;
65656;SDS011;57397;50.096;14.404;2022-11-10T12:32:08;2.05;;;0.80;;
65656;SDS011;57397;50.096;14.404;2022-11-10T12:34:51;1.88;;;0.80;;
65656;SDS011;57397;50.096;14.404;2022-11-10T12:42:44;2.30;;;0.98;;
65656;SDS011;57397;50.096;14.404;2022-11-10T12:45:34;0.95;;;0.68;;
65656;SDS011;57397;50.096;14.404;2022-11-10T12:48:01;1.60;;;0.80;;
65656;SDS011;57397;50.096;14.404;2022-11-10T12:53:22;1.17;;;0.80;;
65656;SDS011;57397;50.096;14.404;2022-11-10T12:55:52;2.15;;;0.85;;
65656;SDS011;57397;50.096;14.404;2022-11-10T12:58:21;1.48;;;0.80;;
65656;SDS011;57397;50.096;14.404;2022-11-10T13:01:05;2.03;;;1.00;;
65656;SDS011;57397;50.096;14.404;2022-11-10T13:03:59;1.75;;;0.98;;
65656;SDS011;57397;50.096;14.404;2022-11-10T13:06:29;1.10;;;0.80;;
65656;SDS011;57397;50.096;14.404;2022-11-10T13:08:56;1.95;;;0.90;;
65656;SDS011;57397;50.096;14.404;2022-11-10T13:11:24;1.40;;;0.70;;
65656;SDS011;57397;50.096;14.404;2022-11-10T13:14:18;2.15;;;0.90;;
65656;SDS011;57397;50.096;14.404;2022-11-10T13:16:53;1.33;;;0.75;;
65656;SDS011;57397;50.096;14.404;2022-11-10T13:26:54;1.55;;;0.88;;
65656;SDS011;57397;50.096;14.404;2022-11-10T13:32:26;0.90;;;0.70;;
65656;SDS011;57397;50.096;14.404;2022-11-10T13:35:42;1.20;;;0.85;;
65656;SDS011;57397;50.096;14.404;2022-11-10T13:37:53;1.02;;;0.80;;
65656;SDS011;57397;50.096;14.404;2022-11-10T13:45:26;2.88;;;1.05;;
65656;SDS011;57397;50.096;14.404;2022-11-10T13:47:56;1.88;;;0.80;;
65656;SDS011;57397;50.096;14.404;2022-11-10T13:50:29;1.83;;;0.80;;
65656;SDS011;57397;50.096;14.404;2022-11-10T13:53:23;1.30;;;0.80;;
65656;SDS011;57397;50.096;14.404;2022-11-10T13:58:28;2.05;;;0.90;;
65656;SDS011;57397;50.096;14.404;2022-11-10T14:03:55;1.70;;;0.80;;
65656;SDS011;57397;50.096;14.404;2022-11-10T14:09:15;2.03;;;0.93;;
65656;SDS011;57397;50.096;14.404;2022-11-10T14:11:46;1.77;;;0.88;;
65656;SDS011;57397;50.096;14.404;2022-11-10T14:14:24;1.63;;;0.80;;
65656;SDS011;57397;50.096;14.404;2022-11-10T14:16:52;1.05;;;0.70;;
65656;SDS011;57397;50.096;14.404;2022-11-10T14:19:28;0.90;;;0.80;;
65656;SDS011;57397;50.096;14.404;2022-11-10T14:22:00;2.45;;;0.80;;
65656;SDS011;57397;50.096;14.404;2022-11-10T14:24:38;1.35;;;0.93;;
65656;SDS011;57397;50.096;14.404;2022-11-10T14:27:14;1.40;;;0.82;;
65656;SDS011;57397;50.096;14.404;2022-11-10T14:32:30;3.03;;;1.00;;
65656;SDS011;57397;50.096;14.404;2022-11-10T14:34:56;1.15;;;0.75;;
65656;SDS011;57397;50.096;14.404;2022-11-10T14:37:25;1.92;;;0.90;;
65656;SDS011;57397;50.096;14.404;2022-11-10T14:39:59;1.77;;;1.00;;
65656;SDS011;57397;50.096;14.404;2022-11-10T14:42:29;1.85;;;1.00;;
65656;SDS011;57397;50.096;14.404;2022-11-10T14:47:30;2.17;;;1.02;;
65656;SDS011;57397;50.096;14.404;2022-11-10T14:50:15;1.80;;;0.90;;
65656;SDS011;57397;50.096;14.404;2022-11-10T14:52:44;2.33;;;1.38;;
65656;SDS011;57397;50.096;14.404;2022-11-10T14:55:15;1.25;;;0.88;;
65656;SDS011;57397;50.096;14.404;2022-11-10T14:57:50;2.17;;;0.80;;
65656;SDS011;57397;50.096;14.404;2022-11-10T15:00:39;1.60;;;1.10;;
65656;SDS011;57397;50.096;14.404;2022-11-10T15:03:07;2.20;;;1.00;;
65656;SDS011;57397;50.096;14.404;2022-11-10T15:05:33;1.83;;;1.00;;
65656;SDS011;57397;50.096;14.404;2022-11-10T15:07:59;1.70;;;0.98;;
65656;SDS011;57397;50.096;14.404;2022-11-10T15:10:46;2.00;;;1.13;;
65656;SDS011;57397;50.096;14.404;2022-11-10T15:15:37;2.67;;;1.38;;
65656;SDS011;57397;50.096;14.404;2022-11-10T15:18:03;3.17;;;1.35;;
65656;SDS011;57397;50.096;14.404;2022-11-10T15:20:31;3.03;;;1.40;;
65656;SDS011;57397;50.096;14.404;2022-11-10T15:22:58;2.92;;;1.55;;
65656;SDS011;57397;50.096;14.404;2022-11-10T15:25:58;1.90;;;1.50;;
65656;SDS011;57397;50.096;14.404;2022-11-10T15:28:20;3.60;;;1.70;;
65656;SDS011;57397;50.096;14.404;2022-11-10T15:30:51;3.03;;;1.80;;
65656;SDS011;57397;50.096;14.404;2022-11-10T15:33:23;3.22;;;1.75;;
65656;SDS011;57397;50.096;14.404;2022-11-10T15:35:53;2.33;;;1.60;;
65656;SDS011;57397;50.096;14.404;2022-11-10T15:40:50;2.53;;;1.80;;
65656;SDS011;57397;50.096;14.404;2022-11-10T15:46:08;2.88;;;1.73;;
65656;SDS011;57397;50.096;14.404;2022-11-10T15:48:40;2.42;;;1.88;;
65656;SDS011;57397;50.096;14.404;2022-11-10T15:51:08;2.95;;;1.83;;
65656;SDS011;57397;50.096;14.404;2022-11-10T15:53:36;2.55;;;1.63;;
65656;SDS011;57397;50.096;14.404;2022-11-10T15:56:07;2.83;;;2.10;;
65656;SDS011;57397;50.096;14.404;2022-11-10T15:58:36;3.60;;;1.73;;
65656;SDS011;57397;50.096;14.404;2022-11-10T16:01:02;3.13;;;2.17;;
65656;SDS011;57397;50.096;14.404;2022-11-10T16:03:27;3.53;;;1.80;;
65656;SDS011;57397;50.096;14.404;2022-11-10T16:05:55;3.38;;;2.00;;
65656;SDS011;57397;50.096;14.404;2022-11-10T16:08:20;2.95;;;1.90;;
65656;SDS011;57397;50.096;14.404;2022-11-10T16:10:53;3.00;;;1.90;;
65656;SDS011;57397;50.096;14.404;2022-11-10T16:13:21;3.42;;;1.90;;
65656;SDS011;57397;50.096;14.404;2022-11-10T16:15:48;2.80;;;1.90;;
65656;SDS011;57397;50.096;14.404;2022-11-10T16:18:18;2.67;;;2.22;;
65656;SDS011;57397;50.096;14.404;2022-11-10T16:20:45;2.83;;;2.00;;
65656;SDS011;57397;50.096;14.404;2022-11-10T16:23:11;3.22;;;1.90;;
65656;SDS011;57397;50.096;14.404;2022-11-10T16:25:37;3.47;;;2.00;;
65656;SDS011;57397;50.096;14.404;2022-11-10T16:28:03;4.20;;;2.20;;
65656;SDS011;57397;50.096;14.404;2022-11-10T16:30:29;2.33;;;1.90;;
65656;SDS011;57397;50.096;14.404;2022-11-10T16:32:55;3.42;;;2.42;;
65656;SDS011;57397;50.096;14.404;2022-11-10T16:35:21;3.38;;;2.28;;
65656;SDS011;57397;50.096;14.404;2022-11-10T16:37:47;2.85;;;2.20;;
65656;SDS011;57397;50.096;14.404;2022-11-10T16:40:13;5.97;;;2.38;;
65656;SDS011;57397;50.096;14.404;2022-11-10T16:42:41;3.30;;;1.92;;
65656;SDS011;57397;50.096;14.404;2022-11-10T16:45:28;4.63;;;2.50;;
65656;SDS011;57397;50.096;14.404;2022-11-10T16:47:54;4.88;;;2.65;;
65656;SDS011;57397;50.096;14.404;2022-11-10T16:50:33;4.10;;;2.53;;
65656;SDS011;57397;50.096;14.404;2022-11-10T16:53:00;4.78;;;2.63;;
65656;SDS011;57397;50.096;14.404;2022-11-10T16:55:26;3.53;;;2.45;;
65656;SDS011;57397;50.096;14.404;2022-11-10T16:57:51;3.90;;;2.60;;